Time;durP1;ratioP1;P1;durP2;ratioP2;P2;SDS_P1;SDS_P2;PMS_P1;PMS_P2;Temp;Humidity;BMP_temperature;BMP_pressure;BME280_temperature;BME280_humidity;BME280_pressure;Samples;Min_cycle;Max_cycle;Signal;HPM_P1;HPM_P2
2023/12/31 00:00:27;;;;;;;8.73;7.72;;;;;;;;;;5075711;28;20028;-45
2023/12/31 00:02:53;;;;;;;9.20;7.40;;;;;;;;;;5073200;28;20027;-45
2023/12/31 00:05:19;;;;;;;9.98;7.93;;;;;;;;;;5082591;28;20143;-47
2023/12/31 00:07:45;;;;;;;10.45;7.25;;;;;;;;;;5074671;28;20070;-45
2023/12/31 00:10:10;;;;;;;10.60;7.20;;;;;;;;;;5075073;28;20033;-48
2023/12/31 00:12:36;;;;;;;9.13;7.82;;;;;;;;;;5079314;28;20119;-50
2023/12/31 00:15:01;;;;;;;10.95;8.00;;;;;;;;;;5079183;28;20051;-45
2023/12/31 00:17:27;;;;;;;8.18;6.95;;;;;;;;;;5086402;28;20023;-46
2023/12/31 00:19:52;;;;;;;10.73;7.85;;;;;;;;;;5076216;28;20051;-49
2023/12/31 00:22:17;;;;;;;10.48;6.57;;;;;;;;;;5077999;28;20030;-47
2023/12/31 00:24:43;;;;;;;9.32;8.13;;;;;;;;;;5066944;28;20032;-48
2023/12/31 00:27:08;;;;;;;11.15;7.70;;;;;;;;;;5090843;28;20027;-48
2023/12/31 00:29:34;;;;;;;9.05;8.05;;;;;;;;;;5078296;28;20075;-47
2023/12/31 00:31:59;;;;;;;10.45;8.18;;;;;;;;;;5075602;28;20032;-48
2023/12/31 00:34:25;;;;;;;7.70;6.70;;;;;;;;;;5090322;28;20044;-48
2023/12/31 00:36:50;;;;;;;9.07;6.57;;;;;;;;;;5078174;28;20050;-50
2023/12/31 00:39:16;;;;;;;9.88;8.15;;;;;;;;;;5080607;28;20041;-47
2023/12/31 00:41:41;;;;;;;8.98;7.30;;;;;;;;;;5076220;28;20071;-48
2023/12/31 00:44:07;;;;;;;9.43;7.47;;;;;;;;;;5074711;28;20518;-48
2023/12/31 00:46:32;;;;;;;9.90;7.15;;;;;;;;;;5077189;28;20070;-48
2023/12/31 00:48:57;;;;;;;8.95;7.35;;;;;;;;;;5075737;28;20067;-48
2023/12/31 00:51:23;;;;;;;10.02;7.28;;;;;;;;;;5074797;28;20032;-48
2023/12/31 00:53:48;;;;;;;7.78;6.90;;;;;;;;;;5074966;28;20056;-47
2023/12/31 00:56:15;;;;;;;8.38;7.00;;;;;;;;;;5075176;28;20044;-50
2023/12/31 00:58:40;;;;;;;8.10;6.40;;;;;;;;;;5074286;28;20681;-49
2023/12/31 01:01:06;;;;;;;13.00;8.85;;;;;;;;;;5076295;28;20470;-47
2023/12/31 01:03:33;;;;;;;9.77;8.18;;;;;;;;;;5073718;28;20402;-47
2023/12/31 01:06:05;;;;;;;7.47;6.50;;;;;;;;;;5066848;28;20028;-50
2023/12/31 01:08:31;;;;;;;9.38;7.45;;;;;;;;;;5074769;28;20037;-48
2023/12/31 01:10:56;;;;;;;9.18;6.03;;;;;;;;;;5074910;28;20021;-50
2023/12/31 01:13:22;;;;;;;8.88;7.93;;;;;;;;;;5074604;28;20033;-50
2023/12/31 01:15:47;;;;;;;8.98;6.63;;;;;;;;;;5074022;28;20020;-47
2023/12/31 01:18:13;;;;;;;9.57;7.75;;;;;;;;;;5073441;28;20036;-49
2023/12/31 01:20:38;;;;;;;9.60;6.75;;;;;;;;;;5072663;28;20098;-46
2023/12/31 01:23:04;;;;;;;9.23;6.30;;;;;;;;;;5077684;28;20021;-47
2023/12/31 01:25:29;;;;;;;7.88;6.95;;;;;;;;;;5074052;28;20035;-47
2023/12/31 01:27:55;;;;;;;7.72;6.68;;;;;;;;;;5074471;28;20024;-47
2023/12/31 01:30:24;;;;;;;9.77;7.53;;;;;;;;;;5074499;28;20049;-48
2023/12/31 01:32:50;;;;;;;7.57;6.65;;;;;;;;;;5061788;28;20031;-45
2023/12/31 01:35:16;;;;;;;9.88;7.53;;;;;;;;;;5068307;28;20112;-48
2023/12/31 01:37:42;;;;;;;9.65;7.60;;;;;;;;;;5077713;28;20021;-45
2023/12/31 01:40:08;;;;;;;7.88;7.07;;;;;;;;;;5078120;28;20509;-45
2023/12/31 01:42:34;;;;;;;7.93;7.13;;;;;;;;;;5077048;28;20032;-49
2023/12/31 01:44:59;;;;;;;9.10;7.10;;;;;;;;;;5079204;28;20032;-50
2023/12/31 01:47:25;;;;;;;8.68;6.45;;;;;;;;;;5073342;28;20470;-48
2023/12/31 01:49:51;;;;;;;8.95;7.53;;;;;;;;;;5075434;28;20042;-47
2023/12/31 01:52:18;;;;;;;7.78;6.95;;;;;;;;;;5077305;28;20078;-47
2023/12/31 01:54:43;;;;;;;9.70;7.30;;;;;;;;;;5089853;28;20032;-45
2023/12/31 01:57:11;;;;;;;9.65;6.60;;;;;;;;;;5067046;28;20106;-47
2023/12/31 01:59:37;;;;;;;7.93;6.88;;;;;;;;;;5077450;28;20039;-50
2023/12/31 02:02:03;;;;;;;10.23;7.15;;;;;;;;;;5078740;28;20090;-50
2023/12/31 02:04:35;;;;;;;8.10;7.25;;;;;;;;;;5076556;28;20036;-47
2023/12/31 02:07:01;;;;;;;7.07;6.38;;;;;;;;;;5073575;28;20017;-46
2023/12/31 02:09:27;;;;;;;7.03;6.25;;;;;;;;;;5079823;28;20045;-45
2023/12/31 02:11:53;;;;;;;8.90;6.47;;;;;;;;;;5077352;28;20105;-48
2023/12/31 02:14:19;;;;;;;7.03;5.68;;;;;;;;;;5092342;28;20059;-47
2023/12/31 02:16:44;;;;;;;7.22;6.03;;;;;;;;;;5080520;28;20017;-47
2023/12/31 02:19:09;;;;;;;7.32;6.28;;;;;;;;;;5083391;28;20115;-48
2023/12/31 02:21:35;;;;;;;7.47;6.72;;;;;;;;;;5076526;28;20039;-47
2023/12/31 02:24:01;;;;;;;9.55;6.97;;;;;;;;;;5082130;28;20029;-47
2023/12/31 02:26:28;;;;;;;7.85;6.45;;;;;;;;;;5075265;28;20443;-50
2023/12/31 02:28:54;;;;;;;7.78;6.70;;;;;;;;;;5084721;28;20101;-47
2023/12/31 02:31:19;;;;;;;6.68;5.78;;;;;;;;;;5089208;28;20037;-49
2023/12/31 02:33:45;;;;;;;8.85;6.28;;;;;;;;;;5076309;28;20126;-51
2023/12/31 02:36:10;;;;;;;8.77;6.55;;;;;;;;;;5082028;28;20039;-48
2023/12/31 02:38:36;;;;;;;9.07;7.13;;;;;;;;;;5076210;28;20046;-52
2023/12/31 02:41:01;;;;;;;9.27;6.72;;;;;;;;;;5076152;28;20017;-47
2023/12/31 02:43:26;;;;;;;8.35;5.95;;;;;;;;;;5082993;28;20719;-49
2023/12/31 02:45:52;;;;;;;8.05;5.93;;;;;;;;;;5082744;28;20024;-48
2023/12/31 02:48:17;;;;;;;7.82;5.80;;;;;;;;;;5071269;28;20123;-47
2023/12/31 02:50:43;;;;;;;8.32;7.53;;;;;;;;;;5079185;28;20031;-48
2023/12/31 02:53:08;;;;;;;8.73;5.75;;;;;;;;;;5075155;28;20045;-49
2023/12/31 02:55:34;;;;;;;6.25;5.50;;;;;;;;;;5079303;28;20032;-47
2023/12/31 02:57:59;;;;;;;8.48;7.18;;;;;;;;;;5076645;28;20103;-47
2023/12/31 03:00:24;;;;;;;9.43;6.60;;;;;;;;;;5081168;28;20036;-48
2023/12/31 03:02:50;;;;;;;8.77;6.63;;;;;;;;;;5078584;28;20044;-46
2023/12/31 03:05:15;;;;;;;7.07;6.10;;;;;;;;;;5077599;28;20040;-52
2023/12/31 03:07:41;;;;;;;8.55;6.40;;;;;;;;;;5080252;28;20028;-47
2023/12/31 03:10:07;;;;;;;7.18;6.47;;;;;;;;;;5078328;28;20126;-48
2023/12/31 03:12:32;;;;;;;7.97;6.57;;;;;;;;;;5076622;28;20025;-51
2023/12/31 03:14:58;;;;;;;8.23;6.57;;;;;;;;;;5075813;28;20044;-49
2023/12/31 03:17:23;;;;;;;7.78;6.50;;;;;;;;;;5077768;28;20033;-52
2023/12/31 03:19:50;;;;;;;9.10;6.60;;;;;;;;;;5075676;28;20033;-48
2023/12/31 03:22:15;;;;;;;8.82;6.22;;;;;;;;;;5088466;28;20024;-46
2023/12/31 03:24:42;;;;;;;11.02;6.60;;;;;;;;;;5079094;28;20032;-51
2023/12/31 03:27:09;;;;;;;7.88;6.28;;;;;;;;;;5076286;28;20032;-48
2023/12/31 03:29:35;;;;;;;7.93;5.97;;;;;;;;;;5076144;28;20047;-52
2023/12/31 03:32:00;;;;;;;7.60;5.97;;;;;;;;;;5077440;28;20103;-47
2023/12/31 03:34:26;;;;;;;7.88;5.85;;;;;;;;;;5076209;28;20040;-48
2023/12/31 03:36:51;;;;;;;9.80;7.28;;;;;;;;;;5082077;28;20051;-50
2023/12/31 03:39:17;;;;;;;8.13;6.47;;;;;;;;;;5075801;28;20028;-48
2023/12/31 03:41:43;;;;;;;6.72;6.00;;;;;;;;;;5074259;28;20036;-51
2023/12/31 03:44:08;;;;;;;9.23;6.88;;;;;;;;;;5076152;28;20040;-51
2023/12/31 03:46:34;;;;;;;8.48;7.15;;;;;;;;;;5078710;28;20485;-49
2023/12/31 03:48:59;;;;;;;7.72;6.32;;;;;;;;;;5080848;28;20039;-49
2023/12/31 03:51:24;;;;;;;7.30;6.55;;;;;;;;;;5081405;28;20031;-45
2023/12/31 03:53:50;;;;;;;8.30;7.50;;;;;;;;;;5080117;28;20067;-48
2023/12/31 03:56:15;;;;;;;9.27;6.45;;;;;;;;;;5083329;28;20059;-47
2023/12/31 03:58:41;;;;;;;9.38;6.82;;;;;;;;;;5082811;28;20568;-47
2023/12/31 04:01:07;;;;;;;8.05;6.53;;;;;;;;;;5081349;28;20064;-47
2023/12/31 04:03:32;;;;;;;8.05;7.05;;;;;;;;;;5073040;28;20603;-47
2023/12/31 04:05:57;;;;;;;8.07;6.88;;;;;;;;;;5072899;28;20107;-48
2023/12/31 04:08:24;;;;;;;8.38;6.65;;;;;;;;;;5072587;28;20033;-47
2023/12/31 04:10:49;;;;;;;8.95;6.85;;;;;;;;;;5078833;28;20080;-45
2023/12/31 04:13:16;;;;;;;6.70;5.82;;;;;;;;;;5079023;28;20064;-47
2023/12/31 04:15:42;;;;;;;10.18;6.45;;;;;;;;;;5064737;28;20363;-46
2023/12/31 04:18:07;;;;;;;8.18;6.28;;;;;;;;;;5056040;28;20123;-48
2023/12/31 04:20:32;;;;;;;8.80;6.80;;;;;;;;;;5080278;28;20127;-48
2023/12/31 04:22:58;;;;;;;8.02;7.15;;;;;;;;;;5075447;28;20028;-48
2023/12/31 04:25:23;;;;;;;7.70;5.85;;;;;;;;;;5082884;28;20102;-47
2023/12/31 04:27:48;;;;;;;7.88;7.05;;;;;;;;;;5074813;28;20021;-48
2023/12/31 04:30:14;;;;;;;9.80;7.15;;;;;;;;;;5074002;28;20033;-51
2023/12/31 04:32:39;;;;;;;9.75;6.38;;;;;;;;;;5074213;28;20033;-47
2023/12/31 04:35:05;;;;;;;8.32;6.65;;;;;;;;;;5077686;28;20071;-47
2023/12/31 04:37:31;;;;;;;10.48;7.20;;;;;;;;;;5074197;28;20032;-52
2023/12/31 04:39:56;;;;;;;9.15;7.00;;;;;;;;;;5074066;28;20033;-49
2023/12/31 04:42:22;;;;;;;7.55;6.68;;;;;;;;;;5085311;28;20568;-45
2023/12/31 04:44:47;;;;;;;11.75;8.10;;;;;;;;;;5085612;28;20028;-46
2023/12/31 04:47:12;;;;;;;8.57;6.05;;;;;;;;;;5085242;28;20032;-49
2023/12/31 04:49:38;;;;;;;8.27;7.47;;;;;;;;;;5074970;28;20037;-50
2023/12/31 04:52:04;;;;;;;8.75;7.53;;;;;;;;;;5080095;28;20064;-46
2023/12/31 04:54:29;;;;;;;8.55;7.28;;;;;;;;;;5075152;28;20113;-47
2023/12/31 04:56:54;;;;;;;7.55;6.38;;;;;;;;;;5079057;28;20016;-49
2023/12/31 04:59:20;;;;;;;10.93;7.22;;;;;;;;;;5080273;28;20048;-49
2023/12/31 05:01:49;;;;;;;11.60;8.85;;;;;;;;;;5075197;28;20066;-49
2023/12/31 05:04:14;;;;;;;9.00;7.35;;;;;;;;;;5076251;28;20040;-49
2023/12/31 05:06:39;;;;;;;11.85;7.65;;;;;;;;;;5080430;28;20150;-47
2023/12/31 05:09:08;;;;;;;9.43;7.15;;;;;;;;;;5074376;28;20039;-50
2023/12/31 05:11:34;;;;;;;11.10;8.48;;;;;;;;;;5082890;28;20081;-47
2023/12/31 05:13:59;;;;;;;9.75;7.65;;;;;;;;;;5083182;28;20040;-48
2023/12/31 05:16:26;;;;;;;11.25;9.20;;;;;;;;;;5072785;28;20031;-47
2023/12/31 05:18:53;;;;;;;12.45;8.25;;;;;;;;;;5078622;28;20047;-46
2023/12/31 05:21:19;;;;;;;10.95;8.60;;;;;;;;;;5081061;28;20509;-49
2023/12/31 05:23:45;;;;;;;13.82;9.38;;;;;;;;;;5079293;28;20032;-46
2023/12/31 05:26:10;;;;;;;10.77;8.68;;;;;;;;;;5069015;28;20108;-48
2023/12/31 05:28:37;;;;;;;11.68;8.68;;;;;;;;;;5074418;28;20029;-46
2023/12/31 05:31:02;;;;;;;10.10;8.35;;;;;;;;;;5093582;28;20023;-45
2023/12/31 05:33:27;;;;;;;12.23;10.35;;;;;;;;;;5079385;28;20498;-52
2023/12/31 05:35:53;;;;;;;14.45;9.23;;;;;;;;;;5086043;28;20032;-46
2023/12/31 05:38:18;;;;;;;12.32;8.57;;;;;;;;;;5077634;28;20037;-49
2023/12/31 05:40:44;;;;;;;13.68;9.48;;;;;;;;;;5078030;28;20108;-47
2023/12/31 05:43:10;;;;;;;10.32;9.05;;;;;;;;;;5087784;28;20050;-48
2023/12/31 05:45:36;;;;;;;11.35;9.30;;;;;;;;;;5085935;28;20095;-49
2023/12/31 05:48:01;;;;;;;11.43;10.10;;;;;;;;;;5078297;28;20028;-46
2023/12/31 05:50:27;;;;;;;13.27;9.30;;;;;;;;;;5076015;28;20084;-46
2023/12/31 05:52:52;;;;;;;10.57;9.43;;;;;;;;;;5071472;28;20081;-46
2023/12/31 05:55:18;;;;;;;11.40;8.30;;;;;;;;;;5073835;28;20092;-48
2023/12/31 05:57:43;;;;;;;9.70;8.02;;;;;;;;;;5084818;28;20028;-47
2023/12/31 06:00:10;;;;;;;11.50;10.15;;;;;;;;;;5085669;28;20398;-47
2023/12/31 06:02:36;;;;;;;13.00;9.18;;;;;;;;;;5094679;28;20019;-46
2023/12/31 06:05:02;;;;;;;10.73;8.90;;;;;;;;;;5087461;28;20504;-47
2023/12/31 06:07:27;;;;;;;10.55;9.10;;;;;;;;;;5078634;28;20017;-51
2023/12/31 06:09:53;;;;;;;10.32;9.10;;;;;;;;;;5077516;28;20094;-49
2023/12/31 06:12:18;;;;;;;13.90;8.40;;;;;;;;;;5074547;28;20028;-51
2023/12/31 06:14:44;;;;;;;11.30;8.70;;;;;;;;;;5078353;28;20036;-51
2023/12/31 06:17:09;;;;;;;12.57;9.38;;;;;;;;;;5067331;28;20025;-47
2023/12/31 06:19:34;;;;;;;13.45;8.82;;;;;;;;;;5078177;28;20153;-48
2023/12/31 06:22:00;;;;;;;9.73;8.68;;;;;;;;;;5093223;28;20040;-47
2023/12/31 06:24:25;;;;;;;10.73;8.88;;;;;;;;;;5085084;28;20029;-49
2023/12/31 06:26:52;;;;;;;11.77;9.93;;;;;;;;;;5079792;28;20098;-45
2023/12/31 06:29:18;;;;;;;11.73;8.60;;;;;;;;;;5075308;28;20029;-49
2023/12/31 06:31:43;;;;;;;12.98;8.95;;;;;;;;;;5080066;28;20020;-49
2023/12/31 06:34:08;;;;;;;12.18;8.90;;;;;;;;;;5085843;28;20041;-49
2023/12/31 06:36:34;;;;;;;9.30;7.45;;;;;;;;;;5081263;28;20543;-50
2023/12/31 06:39:00;;;;;;;10.38;8.52;;;;;;;;;;5081160;28;20405;-47
2023/12/31 06:41:25;;;;;;;11.18;8.63;;;;;;;;;;5082398;28;20067;-48
2023/12/31 06:43:51;;;;;;;9.80;8.70;;;;;;;;;;5083287;28;20036;-46
2023/12/31 06:46:16;;;;;;;11.27;8.82;;;;;;;;;;5079362;28;20039;-49
2023/12/31 06:48:42;;;;;;;11.48;9.82;;;;;;;;;;5086603;28;20033;-48
2023/12/31 06:51:07;;;;;;;14.02;9.40;;;;;;;;;;5079306;28;20028;-49
2023/12/31 06:53:35;;;;;;;11.98;8.63;;;;;;;;;;5083853;28;20046;-47
2023/12/31 06:56:05;;;;;;;10.10;8.95;;;;;;;;;;5077884;28;20028;-45
2023/12/31 06:58:30;;;;;;;11.82;9.57;;;;;;;;;;5075745;28;20055;-48
2023/12/31 07:00:56;;;;;;;10.38;9.00;;;;;;;;;;5084982;28;20021;-46
2023/12/31 07:03:21;;;;;;;10.32;8.65;;;;;;;;;;5075791;28;20492;-46
2023/12/31 07:05:47;;;;;;;11.20;9.75;;;;;;;;;;5083969;28;20082;-49
2023/12/31 07:08:13;;;;;;;11.52;10.32;;;;;;;;;;5078992;28;20028;-46
2023/12/31 07:10:39;;;;;;;12.50;10.30;;;;;;;;;;5090177;28;20043;-45
2023/12/31 07:13:04;;;;;;;11.73;8.88;;;;;;;;;;5086163;28;20116;-47
2023/12/31 07:15:30;;;;;;;11.45;10.32;;;;;;;;;;5075952;28;20147;-46
2023/12/31 07:17:56;;;;;;;11.15;9.68;;;;;;;;;;5073109;28;20039;-48
2023/12/31 07:20:22;;;;;;;13.23;10.25;;;;;;;;;;5077336;28;20024;-48
2023/12/31 07:22:47;;;;;;;12.05;9.57;;;;;;;;;;5072022;28;20043;-50
2023/12/31 07:25:12;;;;;;;12.98;9.18;;;;;;;;;;5077369;28;20040;-50
2023/12/31 07:27:38;;;;;;;11.10;8.70;;;;;;;;;;5073989;28;20031;-45
2023/12/31 07:30:04;;;;;;;8.63;7.50;;;;;;;;;;5074668;28;20071;-47
2023/12/31 07:32:29;;;;;;;8.85;7.70;;;;;;;;;;5077051;28;20031;-48
2023/12/31 07:34:55;;;;;;;8.32;7.15;;;;;;;;;;5055716;28;20033;-48
2023/12/31 07:37:21;;;;;;;10.68;8.25;;;;;;;;;;5077358;28;20107;-48
2023/12/31 07:39:47;;;;;;;10.25;8.07;;;;;;;;;;5072278;28;20041;-46
2023/12/31 07:42:13;;;;;;;12.85;8.07;;;;;;;;;;5087089;28;20025;-49
2023/12/31 07:44:38;;;;;;;11.63;8.00;;;;;;;;;;5086892;28;20119;-48
2023/12/31 07:47:04;;;;;;;11.60;9.60;;;;;;;;;;5073370;28;20449;-46
2023/12/31 07:49:30;;;;;;;12.15;8.57;;;;;;;;;;5061948;28;20076;-49
2023/12/31 07:51:56;;;;;;;8.75;7.85;;;;;;;;;;5075218;28;20111;-48
2023/12/31 07:54:21;;;;;;;12.57;7.95;;;;;;;;;;5082032;28;20137;-47
2023/12/31 07:56:47;;;;;;;11.73;8.93;;;;;;;;;;5076993;28;20099;-45
2023/12/31 07:59:12;;;;;;;11.38;7.85;;;;;;;;;;5081335;28;20242;-46
2023/12/31 08:01:37;;;;;;;10.73;8.45;;;;;;;;;;5078800;28;20028;-48
2023/12/31 08:04:03;;;;;;;12.85;8.43;;;;;;;;;;5086422;28;20032;-45
2023/12/31 08:06:28;;;;;;;12.15;8.55;;;;;;;;;;5059664;28;20513;-48
2023/12/31 08:08:54;;;;;;;9.73;8.20;;;;;;;;;;5073803;28;20040;-47
2023/12/31 08:11:21;;;;;;;11.88;7.82;;;;;;;;;;5058123;28;20039;-46
2023/12/31 08:13:48;;;;;;;10.57;8.50;;;;;;;;;;5074174;28;20040;-49
2023/12/31 08:16:13;;;;;;;9.93;8.20;;;;;;;;;;5076140;28;20043;-48
2023/12/31 08:18:38;;;;;;;10.75;6.80;;;;;;;;;;5071952;28;20044;-49
2023/12/31 08:21:04;;;;;;;10.32;7.40;;;;;;;;;;5078929;28;20025;-49
2023/12/31 08:23:30;;;;;;;9.35;7.20;;;;;;;;;;5073775;28;20549;-45
2023/12/31 08:25:56;;;;;;;7.78;6.57;;;;;;;;;;5082426;28;20020;-45
2023/12/31 08:28:22;;;;;;;9.10;6.88;;;;;;;;;;5080484;28;20033;-47
2023/12/31 08:30:48;;;;;;;9.57;8.18;;;;;;;;;;5074165;28;20029;-50
2023/12/31 08:33:13;;;;;;;8.20;7.10;;;;;;;;;;5079899;28;20089;-49
2023/12/31 08:35:43;;;;;;;10.55;7.45;;;;;;;;;;5076688;28;20029;-48
2023/12/31 08:38:09;;;;;;;10.15;6.43;;;;;;;;;;5075149;28;20033;-48
2023/12/31 08:40:34;;;;;;;8.55;6.85;;;;;;;;;;5082660;28;20386;-48
2023/12/31 08:43:01;;;;;;;9.40;7.07;;;;;;;;;;5084516;28;20374;-47
2023/12/31 08:45:26;;;;;;;11.50;6.15;;;;;;;;;;5083991;28;20024;-47
2023/12/31 08:47:52;;;;;;;13.93;7.32;;;;;;;;;;5075916;28;20386;-45
2023/12/31 08:50:18;;;;;;;10.90;6.95;;;;;;;;;;5074331;28;20112;-49
2023/12/31 08:52:45;;;;;;;10.70;6.45;;;;;;;;;;5076437;28;20209;-46
2023/12/31 08:55:11;;;;;;;8.93;6.72;;;;;;;;;;5073172;28;20041;-50
2023/12/31 08:57:40;;;;;;;9.38;7.53;;;;;;;;;;5071136;28;20065;-47
2023/12/31 09:00:07;;;;;;;9.45;6.60;;;;;;;;;;5084737;28;20032;-49
2023/12/31 09:02:32;;;;;;;12.65;7.75;;;;;;;;;;5076960;28;20441;-51
2023/12/31 09:04:58;;;;;;;12.43;7.18;;;;;;;;;;5073443;28;20033;-47
2023/12/31 09:07:24;;;;;;;9.23;6.53;;;;;;;;;;5089353;28;20024;-50
2023/12/31 09:09:49;;;;;;;10.90;7.32;;;;;;;;;;5083151;28;20043;-47
2023/12/31 09:12:14;;;;;;;9.77;6.55;;;;;;;;;;5074676;28;20634;-45
2023/12/31 09:14:40;;;;;;;9.48;6.28;;;;;;;;;;5071671;28;20044;-51
2023/12/31 09:17:05;;;;;;;9.45;6.82;;;;;;;;;;5075417;28;20064;-48
2023/12/31 09:19:31;;;;;;;12.20;6.47;;;;;;;;;;5076570;28;20033;-48
2023/12/31 09:21:56;;;;;;;10.10;5.82;;;;;;;;;;5075489;28;20031;-51
2023/12/31 09:24:22;;;;;;;8.80;6.90;;;;;;;;;;5083452;28;20028;-51
2023/12/31 09:26:47;;;;;;;8.23;7.07;;;;;;;;;;5074273;28;20058;-50
2023/12/31 09:29:13;;;;;;;8.52;5.78;;;;;;;;;;5074345;28;20041;-48
2023/12/31 09:31:38;;;;;;;7.43;5.38;;;;;;;;;;5077307;28;20070;-51
2023/12/31 09:34:04;;;;;;;13.98;5.53;;;;;;;;;;5073033;28;20040;-49
2023/12/31 09:36:29;;;;;;;8.45;4.95;;;;;;;;;;5076927;28;20363;-48
2023/12/31 09:38:54;;;;;;;7.95;5.57;;;;;;;;;;5083252;28;20040;-50
2023/12/31 09:41:24;;;;;;;10.35;6.07;;;;;;;;;;5083723;28;20028;-48
2023/12/31 09:43:55;;;;;;;6.55;5.30;;;;;;;;;;5081207;28;20048;-48
2023/12/31 09:46:22;;;;;;;10.93;6.00;;;;;;;;;;5073620;28;20025;-51
2023/12/31 09:48:51;;;;;;;9.18;5.68;;;;;;;;;;5076432;28;20083;-48
2023/12/31 09:51:17;;;;;;;7.82;5.57;;;;;;;;;;5076647;28;20047;-46
2023/12/31 09:53:45;;;;;;;8.27;4.32;;;;;;;;;;5074086;28;20120;-48
2023/12/31 09:56:11;;;;;;;7.85;4.82;;;;;;;;;;5086011;28;20079;-52
2023/12/31 09:58:37;;;;;;;8.52;4.88;;;;;;;;;;5078118;28;20036;-48
2023/12/31 10:01:03;;;;;;;7.97;5.07;;;;;;;;;;5081399;28;20016;-50
2023/12/31 10:03:29;;;;;;;8.85;4.43;;;;;;;;;;5079000;28;20048;-48
2023/12/31 10:05:56;;;;;;;6.28;4.50;;;;;;;;;;5071312;28;20024;-51
2023/12/31 10:08:22;;;;;;;8.88;5.93;;;;;;;;;;5077174;28;20039;-52
2023/12/31 10:10:50;;;;;;;10.77;5.28;;;;;;;;;;5082633;28;20072;-47
2023/12/31 10:13:16;;;;;;;10.23;5.70;;;;;;;;;;5092146;28;20044;-46
2023/12/31 10:15:42;;;;;;;7.10;5.35;;;;;;;;;;5070097;28;20027;-45
2023/12/31 10:18:07;;;;;;;6.90;4.85;;;;;;;;;;5076705;28;20020;-51
2023/12/31 10:20:36;;;;;;;9.55;4.43;;;;;;;;;;5068602;28;20402;-46
2023/12/31 10:23:01;;;;;;;9.70;6.38;;;;;;;;;;5075349;28;20099;-48
2023/12/31 10:25:28;;;;;;;7.07;4.80;;;;;;;;;;5073099;28;20052;-49
2023/12/31 10:27:54;;;;;;;7.68;4.55;;;;;;;;;;5075289;28;20032;-48
2023/12/31 10:30:21;;;;;;;9.02;4.20;;;;;;;;;;5081651;28;20043;-48
2023/12/31 10:32:47;;;;;;;9.52;4.75;;;;;;;;;;5075515;28;20079;-47
2023/12/31 10:35:18;;;;;;;10.02;4.90;;;;;;;;;;5085262;28;20044;-48
2023/12/31 10:37:43;;;;;;;7.13;4.75;;;;;;;;;;5071732;28;20021;-48
2023/12/31 10:40:17;;;;;;;8.48;4.18;;;;;;;;;;5077049;28;20105;-48
2023/12/31 10:42:48;;;;;;;10.82;5.90;;;;;;;;;;5070468;28;20478;-50
2023/12/31 10:45:18;;;;;;;10.57;5.18;;;;;;;;;;5084314;28;20060;-48
2023/12/31 10:47:47;;;;;;;9.65;4.30;;;;;;;;;;5079305;28;20024;-49
2023/12/31 10:50:17;;;;;;;8.23;4.72;;;;;;;;;;5080365;28;20103;-47
2023/12/31 10:52:44;;;;;;;8.57;4.72;;;;;;;;;;5077242;28;20078;-49
2023/12/31 10:55:13;;;;;;;7.47;4.93;;;;;;;;;;5077771;28;20044;-48
2023/12/31 10:57:42;;;;;;;8.60;4.75;;;;;;;;;;5078533;28;20471;-47
2023/12/31 11:00:11;;;;;;;5.72;3.70;;;;;;;;;;5076084;28;20041;-50
2023/12/31 11:02:37;;;;;;;10.30;5.35;;;;;;;;;;5077149;28;20020;-47
2023/12/31 11:05:03;;;;;;;9.80;4.68;;;;;;;;;;5078939;28;20036;-48
2023/12/31 11:07:29;;;;;;;7.95;5.22;;;;;;;;;;5076810;28;20032;-46
2023/12/31 11:09:56;;;;;;;8.50;4.70;;;;;;;;;;5082786;28;20069;-46
2023/12/31 11:12:22;;;;;;;8.88;5.53;;;;;;;;;;5078698;28;20028;-47
2023/12/31 11:14:56;;;;;;;7.97;4.75;;;;;;;;;;5077474;28;20032;-47
2023/12/31 11:17:51;;;;;;;13.88;5.78;;;;;;;;;;5089377;28;20032;-51
2023/12/31 11:20:40;;;;;;;8.82;5.63;;;;;;;;;;5075888;28;20037;-50
2023/12/31 11:23:40;;;;;;;8.55;4.93;;;;;;;;;;5076796;28;20025;-48
2023/12/31 11:26:05;;;;;;;;;;;;;;;;;;5075243;28;20047;-49
2023/12/31 11:28:33;;;;;;;7.72;6.15;;;;;;;;;;5089519;28;19912;-50
2023/12/31 11:31:02;;;;;;;8.15;4.80;;;;;;;;;;5085655;28;20024;-49
2023/12/31 11:33:32;;;;;;;13.35;5.78;;;;;;;;;;5085424;28;20367;-47
2023/12/31 11:36:07;;;;;;;9.10;5.45;;;;;;;;;;5074717;28;20032;-50
2023/12/31 11:38:53;;;;;;;12.95;6.30;;;;;;;;;;5072125;28;20036;-50
2023/12/31 11:41:19;;;;;;;11.48;6.18;;;;;;;;;;5067264;28;21159;-49
2023/12/31 11:43:45;;;;;;;15.18;6.38;;;;;;;;;;5090190;28;20047;-50
2023/12/31 11:46:30;;;;;;;8.52;6.43;;;;;;;;;;5077910;28;20137;-47
2023/12/31 11:48:57;;;;;;;10.15;4.50;;;;;;;;;;5090179;28;20123;-47
2023/12/31 11:51:23;;;;;;;11.52;5.63;;;;;;;;;;5076599;28;20537;-46
2023/12/31 11:53:49;;;;;;;9.50;5.00;;;;;;;;;;5074388;28;20082;-46
2023/12/31 11:56:15;;;;;;;13.10;5.32;;;;;;;;;;5089630;28;20020;-50
2023/12/31 11:58:42;;;;;;;13.52;4.78;;;;;;;;;;5082205;28;20177;-49
2023/12/31 12:01:09;;;;;;;14.43;5.80;;;;;;;;;;5073736;28;20075;-46
2023/12/31 12:03:35;;;;;;;12.25;5.78;;;;;;;;;;5074810;28;20516;-48
2023/12/31 12:06:01;;;;;;;11.70;4.93;;;;;;;;;;5076240;28;20456;-47
2023/12/31 12:08:26;;;;;;;10.40;5.35;;;;;;;;;;5073499;28;20082;-49
2023/12/31 12:10:52;;;;;;;9.35;4.88;;;;;;;;;;5073672;28;20023;-49
2023/12/31 12:13:17;;;;;;;11.70;5.10;;;;;;;;;;5074624;28;20044;-45
2023/12/31 12:15:43;;;;;;;15.75;5.68;;;;;;;;;;5076559;28;20225;-47
2023/12/31 12:18:24;;;;;;;11.48;5.22;;;;;;;;;;5073433;28;20028;-48
2023/12/31 12:20:50;;;;;;;14.15;5.40;;;;;;;;;;5072874;28;20036;-49
2023/12/31 12:23:19;;;;;;;13.48;6.70;;;;;;;;;;5073824;28;20098;-50
2023/12/31 12:25:45;;;;;;;13.45;5.40;;;;;;;;;;5082192;28;20021;-47
2023/12/31 12:28:11;;;;;;;11.68;5.40;;;;;;;;;;5058307;28;20046;-49
2023/12/31 12:30:41;;;;;;;11.13;5.40;;;;;;;;;;5083171;28;20028;-45
2023/12/31 12:33:07;;;;;;;11.35;5.32;;;;;;;;;;5075020;28;20044;-51
2023/12/31 12:35:33;;;;;;;9.88;5.30;;;;;;;;;;5087998;28;20021;-48
2023/12/31 12:37:58;;;;;;;13.02;6.22;;;;;;;;;;5074845;28;20466;-46
2023/12/31 12:40:24;;;;;;;10.65;6.40;;;;;;;;;;5070834;28;20071;-48
2023/12/31 12:42:49;;;;;;;12.38;4.80;;;;;;;;;;5080457;28;20090;-46
2023/12/31 12:45:16;;;;;;;12.52;6.10;;;;;;;;;;5065575;28;20452;-49
2023/12/31 12:47:42;;;;;;;13.20;5.85;;;;;;;;;;5074086;28;20488;-51
2023/12/31 12:50:09;;;;;;;10.70;5.95;;;;;;;;;;5072913;28;20471;-48
2023/12/31 12:52:34;;;;;;;11.80;5.80;;;;;;;;;;5071910;28;20090;-48
2023/12/31 12:55:00;;;;;;;17.85;8.43;;;;;;;;;;5075453;28;20032;-47
2023/12/31 12:57:25;;;;;;;11.02;6.38;;;;;;;;;;5073392;28;20028;-49
2023/12/31 12:59:51;;;;;;;20.65;8.63;;;;;;;;;;5092822;28;20047;-47
2023/12/31 13:02:17;;;;;;;12.50;5.32;;;;;;;;;;5073001;28;20028;-47
2023/12/31 13:04:45;;;;;;;11.30;5.10;;;;;;;;;;5080834;28;20032;-46
2023/12/31 13:07:10;;;;;;;14.98;12.85;;;;;;;;;;5087511;28;20040;-50
2023/12/31 13:09:36;;;;;;;11.60;5.90;;;;;;;;;;5077485;28;20028;-49
2023/12/31 13:12:03;;;;;;;10.45;6.50;;;;;;;;;;5077598;28;20512;-46
2023/12/31 13:14:29;;;;;;;8.73;7.47;;;;;;;;;;5080159;28;20609;-48
2023/12/31 13:16:54;;;;;;;9.77;5.47;;;;;;;;;;5073347;28;20052;-47
2023/12/31 13:19:20;;;;;;;8.55;5.28;;;;;;;;;;5073921;28;20479;-47
2023/12/31 13:21:45;;;;;;;13.65;7.78;;;;;;;;;;5077589;28;20060;-51
2023/12/31 13:24:11;;;;;;;12.20;8.70;;;;;;;;;;5077632;28;20085;-48
2023/12/31 13:26:36;;;;;;;10.68;8.65;;;;;;;;;;5078532;28;20051;-47
2023/12/31 13:29:02;;;;;;;12.98;8.85;;;;;;;;;;5078846;28;20037;-49
2023/12/31 13:31:28;;;;;;;12.18;8.07;;;;;;;;;;5075907;28;20029;-49
2023/12/31 13:33:54;;;;;;;10.68;6.95;;;;;;;;;;5078663;28;20089;-48
2023/12/31 13:36:20;;;;;;;10.93;7.78;;;;;;;;;;5076881;28;20058;-49
2023/12/31 13:38:45;;;;;;;15.13;8.52;;;;;;;;;;5079032;28;20129;-47
2023/12/31 13:41:11;;;;;;;18.27;10.68;;;;;;;;;;5078694;28;20100;-51
2023/12/31 13:43:37;;;;;;;13.77;10.23;;;;;;;;;;5083246;28;20020;-50
2023/12/31 13:46:03;;;;;;;15.43;9.55;;;;;;;;;;5080814;28;20044;-48
2023/12/31 13:48:29;;;;;;;15.95;9.52;;;;;;;;;;5075857;28;20040;-51
2023/12/31 13:50:54;;;;;;;11.60;8.50;;;;;;;;;;5076734;28;20020;-48
2023/12/31 13:53:20;;;;;;;14.93;9.05;;;;;;;;;;5076001;28;20036;-50
2023/12/31 13:55:45;;;;;;;14.45;8.77;;;;;;;;;;5078071;28;20521;-46
2023/12/31 13:58:11;;;;;;;14.13;10.35;;;;;;;;;;5082804;28;20024;-50
2023/12/31 14:00:36;;;;;;;12.70;9.57;;;;;;;;;;5088909;28;20020;-48
2023/12/31 14:03:02;;;;;;;12.35;8.65;;;;;;;;;;5074181;28;20021;-49
2023/12/31 14:05:27;;;;;;;11.95;9.00;;;;;;;;;;5080558;28;20118;-49
2023/12/31 14:07:52;;;;;;;12.07;8.75;;;;;;;;;;5077720;28;20373;-51
2023/12/31 14:10:18;;;;;;;12.25;8.38;;;;;;;;;;5078321;28;20040;-46
2023/12/31 14:12:43;;;;;;;11.35;8.70;;;;;;;;;;5079629;28;20062;-46
2023/12/31 14:15:10;;;;;;;10.65;7.20;;;;;;;;;;5071643;28;20041;-51
2023/12/31 14:17:36;;;;;;;11.23;7.80;;;;;;;;;;5077417;28;20542;-50
2023/12/31 14:20:01;;;;;;;12.38;8.55;;;;;;;;;;5078067;28;20032;-48
2023/12/31 14:22:29;;;;;;;12.10;9.30;;;;;;;;;;5078778;28;20093;-47
2023/12/31 14:24:54;;;;;;;14.73;9.57;;;;;;;;;;5077739;28;20063;-48
2023/12/31 14:27:20;;;;;;;13.00;9.95;;;;;;;;;;5061085;28;20397;-47
2023/12/31 14:29:45;;;;;;;13.30;9.52;;;;;;;;;;5081601;28;20033;-49